Time;durP1;ratioP1;P1;durP2;ratioP2;P2;SDS_P1;SDS_P2;PMS_P1;PMS_P2;Temp;Humidity;BMP_temperature;BMP_pressure;BME280_temperature;BME280_humidity;BME280_pressure;Samples;Min_cycle;Max_cycle;Signal;HPM_P1;HPM_P2
2022/04/22 00:00:15;;;;;;;12.75;5.10;;;;;;;;;;4953753;28;20055;-80
2022/04/22 00:02:42;;;;;;;10.77;4.90;;;;;;;;;;4951659;28;20099;-79
2022/04/22 00:05:08;;;;;;;8.00;5.03;;;;;;;;;;4951840;28;20055;-79
2022/04/22 00:07:35;;;;;;;10.45;4.95;;;;;;;;;;4950619;28;20087;-80
2022/04/22 00:10:01;;;;;;;8.82;4.93;;;;;;;;;;4968991;28;20150;-80
2022/04/22 00:12:28;;;;;;;11.55;4.97;;;;;;;;;;4950751;28;20055;-79
2022/04/22 00:14:54;;;;;;;8.82;5.22;;;;;;;;;;4951319;28;20111;-80
2022/04/22 00:17:20;;;;;;;9.52;4.88;;;;;;;;;;4951184;28;20114;-79
2022/04/22 00:19:47;;;;;;;9.02;5.13;;;;;;;;;;4969788;28;20091;-80
2022/04/22 00:22:13;;;;;;;9.95;5.22;;;;;;;;;;4959425;28;20063;-79
2022/04/22 00:24:39;;;;;;;9.43;5.50;;;;;;;;;;4966271;28;20325;-80
2022/04/22 00:27:06;;;;;;;11.73;6.00;;;;;;;;;;4948059;28;20584;-79
2022/04/22 00:29:32;;;;;;;11.93;5.85;;;;;;;;;;4960036;28;20796;-79
2022/04/22 00:31:59;;;;;;;8.73;5.25;;;;;;;;;;4964985;28;20407;-79
2022/04/22 00:34:25;;;;;;;8.70;4.97;;;;;;;;;;4950946;28;20066;-80
2022/04/22 00:36:52;;;;;;;10.45;5.50;;;;;;;;;;4947146;28;20079;-79
2022/04/22 00:39:19;;;;;;;9.38;5.32;;;;;;;;;;4968972;28;20043;-78
2022/04/22 00:41:45;;;;;;;9.20;5.03;;;;;;;;;;4967778;28;20063;-79
2022/04/22 00:44:11;;;;;;;10.68;5.18;;;;;;;;;;4961307;28;20048;-78
2022/04/22 00:46:38;;;;;;;11.43;5.63;;;;;;;;;;4967824;28;20351;-79
2022/04/22 00:49:04;;;;;;;12.40;5.45;;;;;;;;;;4968781;28;20051;-80
2022/04/22 00:51:31;;;;;;;16.15;6.68;;;;;;;;;;4948888;28;20051;-79
2022/04/22 00:53:57;;;;;;;9.15;5.38;;;;;;;;;;4968872;28;20974;-79
2022/04/22 00:56:24;;;;;;;10.27;5.88;;;;;;;;;;4949196;28;20063;-79
2022/04/22 00:58:51;;;;;;;10.52;5.35;;;;;;;;;;4951235;28;20079;-80
2022/04/22 01:01:17;;;;;;;10.13;5.95;;;;;;;;;;4967803;28;20133;-78
2022/04/22 01:12:01;;;;;;;9.45;5.50;;;;;;;;;;4968029;28;20063;-79
2022/04/22 01:14:28;;;;;;;11.20;5.93;;;;;;;;;;4963600;28;20110;-79
2022/04/22 01:16:55;;;;;;;11.35;5.85;;;;;;;;;;4971772;28;20055;-80
2022/04/22 01:19:21;;;;;;;10.07;6.00;;;;;;;;;;4972345;28;20923;-79
2022/04/22 01:21:48;;;;;;;11.18;6.28;;;;;;;;;;4955276;28;20828;-79
2022/04/22 01:24:14;;;;;;;10.38;6.03;;;;;;;;;;4954096;28;20130;-80
2022/04/22 01:26:41;;;;;;;11.27;5.55;;;;;;;;;;4944027;28;20139;-80
2022/04/22 01:29:07;;;;;;;11.00;6.05;;;;;;;;;;4955038;28;20095;-79
2022/04/22 01:31:34;;;;;;;9.35;5.72;;;;;;;;;;4972668;28;20936;-79
2022/04/22 01:34:01;;;;;;;10.95;5.57;;;;;;;;;;4971711;28;20063;-79
2022/04/22 01:36:27;;;;;;;11.73;5.57;;;;;;;;;;4972023;28;20142;-79
2022/04/22 01:38:55;;;;;;;10.90;5.78;;;;;;;;;;4954325;28;20062;-79
2022/04/22 01:41:21;;;;;;;11.05;5.80;;;;;;;;;;4945508;28;20161;-79
2022/04/22 01:43:48;;;;;;;11.45;5.93;;;;;;;;;;4971318;28;20059;-79
2022/04/22 01:46:15;;;;;;;10.52;6.25;;;;;;;;;;4971502;28;20059;-79
2022/04/22 01:48:42;;;;;;;10.10;6.00;;;;;;;;;;4954734;28;20806;-78
2022/04/22 01:51:08;;;;;;;10.50;5.38;;;;;;;;;;4967889;28;20087;-79
2022/04/22 01:53:35;;;;;;;13.25;6.45;;;;;;;;;;4971640;28;20879;-79
2022/04/22 01:56:01;;;;;;;11.77;5.93;;;;;;;;;;4954134;28;20056;-79
2022/04/22 01:58:28;;;;;;;9.82;6.13;;;;;;;;;;4972643;28;20170;-79
2022/04/22 02:00:54;;;;;;;16.08;6.35;;;;;;;;;;4971687;28;20079;-79
2022/04/22 02:03:21;;;;;;;15.73;6.55;;;;;;;;;;4953714;28;20058;-79
2022/04/22 02:05:47;;;;;;;13.68;6.60;;;;;;;;;;4971608;28;20162;-79
2022/04/22 02:08:14;;;;;;;12.45;6.28;;;;;;;;;;4965545;28;20060;-79
2022/04/22 02:10:43;;;;;;;11.23;6.38;;;;;;;;;;4969684;28;20051;-79
2022/04/22 02:13:09;;;;;;;12.05;6.15;;;;;;;;;;4969760;28;20150;-79
2022/04/22 02:15:36;;;;;;;12.57;6.53;;;;;;;;;;4954026;28;20106;-78
2022/04/22 02:18:03;;;;;;;11.18;5.72;;;;;;;;;;4970928;28;20055;-78
2022/04/22 02:20:29;;;;;;;10.27;6.10;;;;;;;;;;4946150;28;20178;-79
2022/04/22 02:22:56;;;;;;;9.45;5.57;;;;;;;;;;4947381;28;20048;-79
2022/04/22 02:25:22;;;;;;;12.90;6.13;;;;;;;;;;4968103;28;20196;-79
2022/04/22 02:30:33;;;;;;;10.95;5.47;;;;;;;;;;4966333;28;20118;-78
2022/04/22 02:33:00;;;;;;;10.45;5.60;;;;;;;;;;4946891;28;20507;-80
2022/04/22 02:35:26;;;;;;;10.27;5.70;;;;;;;;;;4969477;28;20059;-79
2022/04/22 02:37:53;;;;;;;12.52;5.70;;;;;;;;;;4952514;28;20146;-79
2022/04/22 02:45:49;;;;;;;9.60;5.28;;;;;;;;;;4964425;28;20098;-79
2022/04/22 02:48:15;;;;;;;11.85;5.05;;;;;;;;;;4953068;28;20601;-79
2022/04/22 02:50:42;;;;;;;8.20;4.75;;;;;;;;;;4962314;28;20898;-78
2022/04/22 02:53:08;;;;;;;9.02;5.40;;;;;;;;;;4953276;28;20146;-79
2022/04/22 02:55:36;;;;;;;9.95;5.53;;;;;;;;;;4953170;28;20063;-80
2022/04/22 02:58:02;;;;;;;10.20;5.78;;;;;;;;;;4953385;28;20086;-79
2022/04/22 03:00:28;;;;;;;9.63;5.55;;;;;;;;;;4952954;28;20110;-79
2022/04/22 03:02:55;;;;;;;11.20;5.78;;;;;;;;;;4971078;28;20090;-79
2022/04/22 03:05:21;;;;;;;9.98;5.63;;;;;;;;;;4966156;28;20061;-78
2022/04/22 03:07:48;;;;;;;13.93;6.43;;;;;;;;;;4946461;28;20131;-79
2022/04/22 03:10:14;;;;;;;10.27;5.68;;;;;;;;;;4953055;28;20055;-78
2022/04/22 03:12:42;;;;;;;14.70;6.30;;;;;;;;;;4966326;28;20142;-79
2022/04/22 03:15:08;;;;;;;9.25;5.82;;;;;;;;;;4949933;28;20421;-79
2022/04/22 03:17:35;;;;;;;12.75;6.22;;;;;;;;;;4967226;28;20090;-79
2022/04/22 03:20:01;;;;;;;10.80;5.88;;;;;;;;;;4969784;28;20082;-79
2022/04/22 03:22:28;;;;;;;12.05;6.40;;;;;;;;;;4971238;28;20486;-78
2022/04/22 03:24:54;;;;;;;12.63;6.47;;;;;;;;;;4952885;28;20102;-79
2022/04/22 03:27:21;;;;;;;12.50;6.68;;;;;;;;;;4965113;28;20055;-79
2022/04/22 03:29:48;;;;;;;13.43;6.07;;;;;;;;;;4969282;28;20845;-79
2022/04/22 03:32:14;;;;;;;10.85;6.13;;;;;;;;;;4952982;28;20142;-79
2022/04/22 03:34:41;;;;;;;12.93;7.22;;;;;;;;;;4952667;28;20142;-79
2022/04/22 03:37:07;;;;;;;13.15;6.40;;;;;;;;;;4967601;28;20059;-79
2022/04/22 03:39:34;;;;;;;17.98;6.65;;;;;;;;;;4953054;28;20055;-79
2022/04/22 03:42:01;;;;;;;15.63;7.32;;;;;;;;;;4951266;28;20146;-79
2022/04/22 03:44:27;;;;;;;13.60;7.13;;;;;;;;;;4953020;28;20138;-78
2022/04/22 03:46:54;;;;;;;12.75;7.20;;;;;;;;;;4970052;28;20082;-78
2022/04/22 03:49:20;;;;;;;11.13;7.15;;;;;;;;;;4952990;28;20075;-79
2022/04/22 03:51:47;;;;;;;15.90;6.75;;;;;;;;;;4965302;28;20902;-79
2022/04/22 03:54:16;;;;;;;13.65;7.45;;;;;;;;;;4952663;28;20052;-78
2022/04/22 03:59:27;;;;;;;13.68;7.40;;;;;;;;;;4964258;28;20058;-78
2022/04/22 04:01:54;;;;;;;12.60;7.03;;;;;;;;;;4949933;28;20932;-79
2022/04/22 04:04:21;;;;;;;15.02;7.70;;;;;;;;;;4952728;28;20047;-79
2022/04/22 04:06:48;;;;;;;11.05;6.75;;;;;;;;;;4952582;28;20059;-78
2022/04/22 04:17:38;;;;;;;12.20;7.25;;;;;;;;;;4969361;28;20865;-79
2022/04/22 04:25:40;;;;;;;13.65;7.70;;;;;;;;;;4965031;28;20059;-79
2022/04/22 04:28:09;;;;;;;13.43;7.97;;;;;;;;;;4951753;28;20067;-79
2022/04/22 04:30:39;;;;;;;13.73;7.90;;;;;;;;;;4952064;28;20075;-79
2022/04/22 04:33:07;;;;;;;13.43;7.63;;;;;;;;;;4968725;28;20114;-78
2022/04/22 04:35:35;;;;;;;16.60;7.70;;;;;;;;;;4968344;28;20155;-79
2022/04/22 04:38:02;;;;;;;15.43;7.78;;;;;;;;;;4968006;28;20086;-79
2022/04/22 04:40:29;;;;;;;12.45;7.80;;;;;;;;;;4950278;28;20057;-79
2022/04/22 04:42:55;;;;;;;14.93;8.60;;;;;;;;;;4968345;28;20051;-79
2022/04/22 04:45:21;;;;;;;18.77;7.95;;;;;;;;;;4969021;28;20060;-79
2022/04/22 04:47:48;;;;;;;14.35;8.52;;;;;;;;;;4968448;28;20529;-78
2022/04/22 04:50:15;;;;;;;14.45;8.00;;;;;;;;;;4970108;28;20051;-79
2022/04/22 04:52:41;;;;;;;16.60;8.43;;;;;;;;;;4972398;28;20065;-79
2022/04/22 04:55:09;;;;;;;12.63;8.23;;;;;;;;;;4955931;28;20074;-79
2022/04/22 04:57:35;;;;;;;13.45;7.95;;;;;;;;;;4954269;28;20869;-81
2022/04/22 05:00:05;;;;;;;13.90;8.18;;;;;;;;;;4972353;28;20062;-80
2022/04/22 05:02:32;;;;;;;13.02;8.10;;;;;;;;;;4953243;28;20114;-79
2022/04/22 05:04:58;;;;;;;12.50;7.57;;;;;;;;;;4947126;28;20114;-79
2022/04/22 05:07:25;;;;;;;15.38;8.00;;;;;;;;;;4954697;28;20146;-80
2022/04/22 05:09:51;;;;;;;16.83;8.20;;;;;;;;;;4954550;28;20150;-79
2022/04/22 05:12:17;;;;;;;16.55;8.15;;;;;;;;;;4952138;28;20055;-80
2022/04/22 05:14:47;;;;;;;10.82;7.60;;;;;;;;;;4955506;28;20145;-79
2022/04/22 05:17:14;;;;;;;17.15;7.95;;;;;;;;;;4972014;28;20074;-78
2022/04/22 05:19:40;;;;;;;16.30;8.55;;;;;;;;;;4970552;28;20094;-80
2022/04/22 05:22:07;;;;;;;17.20;8.18;;;;;;;;;;4946135;28;20114;-80
2022/04/22 05:24:35;;;;;;;13.60;8.05;;;;;;;;;;4954602;28;20076;-79
2022/04/22 05:27:02;;;;;;;11.45;7.28;;;;;;;;;;4954196;28;20055;-79
2022/04/22 05:34:58;;;;;;;17.17;8.27;;;;;;;;;;4967483;28;20087;-79
2022/04/22 05:37:24;;;;;;;16.40;8.70;;;;;;;;;;4944067;28;20051;-79
2022/04/22 05:39:51;;;;;;;15.30;7.95;;;;;;;;;;4972752;28;20055;-79
2022/04/22 05:42:17;;;;;;;17.92;8.38;;;;;;;;;;4971311;28;20835;-80
2022/04/22 05:44:43;;;;;;;16.77;8.30;;;;;;;;;;4951129;28;20080;-80
2022/04/22 05:47:10;;;;;;;17.63;8.73;;;;;;;;;;4965890;28;20193;-81
2022/04/22 05:49:36;;;;;;;13.88;8.60;;;;;;;;;;4971005;28;20055;-80
2022/04/22 05:52:03;;;;;;;15.43;8.35;;;;;;;;;;4969464;28;20055;-80
2022/04/22 05:54:30;;;;;;;14.27;8.52;;;;;;;;;;4953934;28;20086;-79
2022/04/22 05:56:57;;;;;;;16.33;8.32;;;;;;;;;;4946896;28;20051;-79
2022/04/22 05:59:24;;;;;;;15.32;9.48;;;;;;;;;;4971479;28;20066;-80
2022/04/22 06:01:50;;;;;;;15.63;9.23;;;;;;;;;;4953926;28;20082;-80
2022/04/22 06:04:17;;;;;;;16.30;9.02;;;;;;;;;;4964281;28;20134;-80
2022/04/22 06:06:43;;;;;;;16.40;9.93;;;;;;;;;;4964046;28;20091;-79
2022/04/22 06:12:00;;;;;;;17.38;9.38;;;;;;;;;;4941175;28;20083;-79
2022/04/22 06:14:26;;;;;;;16.10;9.50;;;;;;;;;;4953022;28;20055;-80
2022/04/22 06:16:52;;;;;;;22.50;11.00;;;;;;;;;;4971040;28;20059;-79
2022/04/22 06:19:19;;;;;;;16.98;10.48;;;;;;;;;;4970894;28;20817;-80
2022/04/22 06:21:45;;;;;;;18.35;10.88;;;;;;;;;;4957445;28;20106;-79
2022/04/22 06:24:12;;;;;;;27.00;11.52;;;;;;;;;;4951312;28;20086;-80
2022/04/22 06:26:39;;;;;;;21.60;11.25;;;;;;;;;;4969584;28;20131;-81
2022/04/22 06:29:05;;;;;;;22.95;10.18;;;;;;;;;;4954058;28;20067;-80
2022/04/22 06:31:32;;;;;;;19.08;10.63;;;;;;;;;;4952133;28;20067;-80
2022/04/22 06:33:59;;;;;;;21.90;11.07;;;;;;;;;;4954566;28;20062;-80
2022/04/22 06:36:28;;;;;;;21.52;11.38;;;;;;;;;;4951072;28;20091;-81
2022/04/22 06:38:58;;;;;;;24.27;10.93;;;;;;;;;;4971245;28;20912;-80
2022/04/22 06:46:55;;;;;;;21.10;10.52;;;;;;;;;;4962975;28;20063;-80
2022/04/22 06:49:23;;;;;;;19.23;10.13;;;;;;;;;;4950352;28;20130;-80
2022/04/22 06:51:50;;;;;;;25.60;12.63;;;;;;;;;;4968933;28;20051;-81
2022/04/22 06:54:17;;;;;;;23.13;10.05;;;;;;;;;;4971763;28;20142;-80
2022/04/22 06:56:45;;;;;;;20.33;10.73;;;;;;;;;;4957705;28;20107;-80
2022/04/22 06:59:11;;;;;;;17.77;10.68;;;;;;;;;;4970027;28;20865;-80
2022/04/22 07:01:38;;;;;;;16.75;10.05;;;;;;;;;;4969478;28;20089;-80
2022/04/22 07:04:13;;;;;;;22.75;10.93;;;;;;;;;;4969764;28;20162;-80
2022/04/22 07:06:41;;;;;;;17.20;10.45;;;;;;;;;;4953428;28;20099;-80
2022/04/22 07:09:10;;;;;;;16.92;10.25;;;;;;;;;;4954451;28;20051;-81
2022/04/22 07:11:37;;;;;;;17.75;10.60;;;;;;;;;;4963917;28;20048;-81
2022/04/22 07:14:03;;;;;;;16.98;10.75;;;;;;;;;;4958411;28;20130;-80
2022/04/22 07:16:30;;;;;;;15.23;9.98;;;;;;;;;;4954416;28;20150;-79
2022/04/22 07:18:57;;;;;;;19.02;9.90;;;;;;;;;;4951364;28;20868;-81
2022/04/22 07:21:24;;;;;;;19.98;9.65;;;;;;;;;;4964607;28;20135;-80
2022/04/22 07:23:52;;;;;;;19.45;10.48;;;;;;;;;;4954091;28;20569;-80
2022/04/22 07:26:19;;;;;;;17.63;9.98;;;;;;;;;;4963330;28;20043;-80
2022/04/22 07:28:46;;;;;;;17.98;9.38;;;;;;;;;;4944685;28;20138;-81
2022/04/22 07:31:14;;;;;;;17.50;10.00;;;;;;;;;;4952195;28;20126;-79
2022/04/22 07:33:41;;;;;;;15.38;9.63;;;;;;;;;;4954310;28;21011;-80
2022/04/22 07:36:07;;;;;;;14.35;9.02;;;;;;;;;;4955845;28;20149;-80
2022/04/22 07:38:34;;;;;;;16.08;9.20;;;;;;;;;;4970719;28;20055;-80
2022/04/22 07:41:01;;;;;;;37.45;10.23;;;;;;;;;;4969878;28;20111;-81
2022/04/22 07:48:58;;;;;;;17.52;8.93;;;;;;;;;;4969214;28;20146;-80
2022/04/22 07:51:26;;;;;;;15.10;8.48;;;;;;;;;;4951406;28;20047;-81
2022/04/22 07:53:55;;;;;;;17.02;8.50;;;;;;;;;;4967775;28;20059;-83
2022/04/22 07:56:22;;;;;;;24.67;9.02;;;;;;;;;;4962443;28;20079;-81
2022/04/22 07:58:49;;;;;;;14.15;8.38;;;;;;;;;;4954645;28;20106;-82
2022/04/22 08:01:15;;;;;;;20.00;8.25;;;;;;;;;;4952711;28;20063;-82
2022/04/22 08:03:42;;;;;;;13.57;8.35;;;;;;;;;;4977537;28;20075;-82
2022/04/22 08:06:10;;;;;;;21.48;8.88;;;;;;;;;;4956882;28;20085;-80
2022/04/22 08:08:36;;;;;;;15.30;8.40;;;;;;;;;;4953738;28;20085;-79
2022/04/22 08:11:03;;;;;;;14.52;7.80;;;;;;;;;;4953861;28;20078;-82
2022/04/22 08:13:29;;;;;;;15.77;8.30;;;;;;;;;;4955071;28;20107;-82
2022/04/22 08:15:56;;;;;;;12.82;8.18;;;;;;;;;;4961585;28;20094;-82
2022/04/22 08:18:22;;;;;;;17.27;8.07;;;;;;;;;;4962378;28;20074;-80
2022/04/22 08:20:49;;;;;;;14.57;7.60;;;;;;;;;;4952828;28;20067;-82
2022/04/22 08:23:20;;;;;;;14.75;7.80;;;;;;;;;;4959041;28;20605;-80
2022/04/22 08:25:46;;;;;;;20.75;8.25;;;;;;;;;;4956430;28;20082;-81
2022/04/22 08:28:13;;;;;;;16.98;8.30;;;;;;;;;;4951761;28;20082;-82
2022/04/22 08:30:39;;;;;;;12.13;7.13;;;;;;;;;;4948688;28;20048;-81
2022/04/22 08:33:06;;;;;;;14.93;8.07;;;;;;;;;;4948618;28;20423;-82
2022/04/22 08:35:35;;;;;;;14.98;7.43;;;;;;;;;;4951103;28;20134;-82
2022/04/22 08:38:03;;;;;;;17.63;7.25;;;;;;;;;;4960284;28;20099;-81
2022/04/22 08:40:30;;;;;;;14.10;7.88;;;;;;;;;;4941755;28;20087;-82
2022/04/22 08:43:00;;;;;;;17.25;7.88;;;;;;;;;;4967431;28;20082;-81
2022/04/22 08:45:27;;;;;;;12.88;7.88;;;;;;;;;;4964794;28;20808;-80
2022/04/22 08:50:41;;;;;;;16.38;7.88;;;;;;;;;;4968386;28;20146;-80
2022/04/22 08:53:11;;;;;;;10.38;7.32;;;;;;;;;;4954284;28;20091;-81
2022/04/22 08:55:39;;;;;;;12.45;7.10;;;;;;;;;;4969150;28;20094;-80
2022/04/22 08:58:06;;;;;;;14.30;6.50;;;;;;;;;;4952889;28;20917;-81
2022/04/22 09:00:34;;;;;;;10.43;6.70;;;;;;;;;;4955856;28;20064;-81
2022/04/22 09:03:00;;;;;;;14.20;7.78;;;;;;;;;;4950460;28;20059;-82
2022/04/22 09:05:27;;;;;;;13.52;7.72;;;;;;;;;;4952251;28;20114;-82
2022/04/22 09:07:54;;;;;;;13.05;6.93;;;;;;;;;;4952689;28;20146;-79
2022/04/22 09:10:20;;;;;;;25.17;8.07;;;;;;;;;;4952105;28;20580;-83
2022/04/22 09:12:54;;;;;;;18.27;7.32;;;;;;;;;;4953532;28;20596;-84
2022/04/22 09:15:22;;;;;;;13.43;6.90;;;;;;;;;;4952848;28;20082;-80
2022/04/22 09:17:48;;;;;;;18.58;7.90;;;;;;;;;;4950746;28;20605;-80
2022/04/22 09:20:16;;;;;;;28.35;7.82;;;;;;;;;;4948081;28;20578;-81
2022/04/22 09:22:45;;;;;;;13.93;7.20;;;;;;;;;;4948872;28;20081;-79
2022/04/22 09:25:21;;;;;;;13.63;6.70;;;;;;;;;;4936598;28;20143;-81
2022/04/22 09:27:48;;;;;;;14.45;7.10;;;;;;;;;;4954730;28;20063;-81
2022/04/22 09:30:14;;;;;;;11.38;7.25;;;;;;;;;;4959214;28;20974;-81
2022/04/22 09:32:44;;;;;;;15.00;6.85;;;;;;;;;;4964046;28;20059;-81
2022/04/22 09:35:10;;;;;;;20.02;6.95;;;;;;;;;;4946399;28;20569;-81
2022/04/22 09:43:35;;;;;;;18.02;7.40;;;;;;;;;;4964379;28;20239;-81
2022/04/22 09:46:32;;;;;;;10.45;6.20;;;;;;;;;;4952480;28;20043;-81
2022/04/22 09:48:59;;;;;;;12.38;6.95;;;;;;;;;;4963928;28;20592;-80
2022/04/22 09:51:27;;;;;;;25.35;6.68;;;;;;;;;;4969786;28;20111;-80
2022/04/22 09:54:14;;;;;;;12.77;6.40;;;;;;;;;;4949372;28;20533;-80
2022/04/22 09:56:54;;;;;;;11.00;5.97;;;;;;;;;;4946702;28;20109;-80
2022/04/22 09:59:21;;;;;;;19.40;7.60;;;;;;;;;;4965985;28;20099;-79
2022/04/22 10:01:48;;;;;;;11.32;5.95;;;;;;;;;;4947470;28;20559;-82
2022/04/22 10:04:28;;;;;;;26.90;6.80;;;;;;;;;;4953369;28;20830;-79
2022/04/22 10:06:57;;;;;;;17.17;6.13;;;;;;;;;;4968782;28;20082;-80
2022/04/22 10:09:24;;;;;;;20.08;5.90;;;;;;;;;;4951349;28;20086;-82
2022/04/22 10:11:52;;;;;;;14.52;6.20;;;;;;;;;;4971483;28;20090;-81
2022/04/22 10:14:20;;;;;;;10.07;5.72;;;;;;;;;;4971874;28;20059;-81
2022/04/22 10:16:48;;;;;;;26.38;6.85;;;;;;;;;;4968895;28;20081;-81
2022/04/22 10:19:15;;;;;;;13.13;5.40;;;;;;;;;;4971702;28;20055;-82
2022/04/22 10:21:41;;;;;;;16.48;5.43;;;;;;;;;;4953063;28;20120;-81
2022/04/22 10:24:08;;;;;;;12.32;5.50;;;;;;;;;;4948958;28;20055;-81
2022/04/22 10:26:36;;;;;;;12.63;5.88;;;;;;;;;;4970015;28;20075;-82
2022/04/22 10:29:03;;;;;;;16.60;5.80;;;;;;;;;;4952520;28;20062;-82
2022/04/22 10:31:30;;;;;;;12.20;5.53;;;;;;;;;;4969799;28;20083;-81
2022/04/22 10:34:07;;;;;;;8.80;5.30;;;;;;;;;;4946157;28;20060;-79
2022/04/22 10:36:34;;;;;;;11.35;5.25;;;;;;;;;;4965109;28;20487;-79
2022/04/22 10:39:01;;;;;;;14.23;5.25;;;;;;;;;;4948374;28;20555;-79
2022/04/22 10:41:28;;;;;;;20.08;6.03;;;;;;;;;;4948026;28;20067;-80
2022/04/22 10:49:36;;;;;;;19.13;5.30;;;;;;;;;;4969584;28;20059;-80
2022/04/22 10:52:18;;;;;;;9.38;5.15;;;;;;;;;;4953164;28;20071;-80
2022/04/22 10:54:55;;;;;;;11.05;5.90;;;;;;;;;;4970147;28;20039;-80
2022/04/22 10:57:25;;;;;;;10.40;5.30;;;;;;;;;;4978510;28;20122;-80
2022/04/22 11:00:27;;;;;;;11.45;5.32;;;;;;;;;;4969623;28;20066;-80
2022/04/22 11:03:04;;;;;;;9.40;4.75;;;;;;;;;;4953996;28;20051;-80
2022/04/22 11:05:30;;;;;;;8.43;5.05;;;;;;;;;;4952251;28;20055;-80
2022/04/22 11:07:57;;;;;;;8.68;4.90;;;;;;;;;;4957410;28;20059;-80
2022/04/22 11:10:23;;;;;;;12.50;4.40;;;;;;;;;;4976240;28;20138;-80
2022/04/22 11:12:51;;;;;;;8.43;3.60;;;;;;;;;;4943961;28;20079;-80
2022/04/22 11:15:36;;;;;;;12.30;4.05;;;;;;;;;;4964181;28;20051;-79
2022/04/22 11:18:03;;;;;;;9.05;4.10;;;;;;;;;;4967331;28;20055;-80
2022/04/22 11:20:30;;;;;;;11.88;4.22;;;;;;;;;;4950823;28;20110;-80
2022/04/22 11:22:56;;;;;;;8.30;4.20;;;;;;;;;;4968782;28;20695;-80
2022/04/22 11:25:26;;;;;;;9.90;4.15;;;;;;;;;;4967836;28;20498;-80
2022/04/22 11:27:54;;;;;;;7.30;3.40;;;;;;;;;;4965546;28;20194;-80
2022/04/22 11:30:22;;;;;;;7.60;3.33;;;;;;;;;;4945101;28;20059;-77
2022/04/22 11:32:51;;;;;;;12.15;3.78;;;;;;;;;;4962771;28;20074;-78
2022/04/22 11:35:25;;;;;;;12.45;3.97;;;;;;;;;;4940935;28;20140;-79
2022/04/22 11:38:00;;;;;;;11.18;3.33;;;;;;;;;;4949881;28;20060;-79
2022/04/22 11:40:26;;;;;;;13.07;3.15;;;;;;;;;;4951226;28;20515;-78
2022/04/22 11:42:54;;;;;;;10.05;3.17;;;;;;;;;;4960306;28;20083;-78
2022/04/22 11:45:21;;;;;;;6.55;3.00;;;;;;;;;;4951468;28;20055;-78
2022/04/22 11:47:48;;;;;;;11.57;3.45;;;;;;;;;;4950932;28;20597;-79
2022/04/22 11:50:19;;;;;;;7.90;3.00;;;;;;;;;;4951221;28;20102;-79
2022/04/22 11:52:53;;;;;;;19.52;3.45;;;;;;;;;;4961171;28;20150;-78
2022/04/22 11:55:20;;;;;;;15.45;3.50;;;;;;;;;;4949977;28;20056;-79
2022/04/22 11:57:46;;;;;;;13.07;3.40;;;;;;;;;;4938962;28;20094;-79
2022/04/22 12:05:46;;;;;;;10.05;2.90;;;;;;;;;;4960934;28;20098;-79
2022/04/22 12:08:15;;;;;;;7.03;2.80;;;;;;;;;;4950389;28;20063;-79
2022/04/22 12:10:48;;;;;;;16.77;3.70;;;;;;;;;;4943733;28;20118;-78
2022/04/22 12:13:16;;;;;;;8.48;2.72;;;;;;;;;;4965459;28;20062;-78
2022/04/22 12:15:45;;;;;;;7.80;2.90;;;;;;;;;;4960768;28;20051;-80
2022/04/22 12:18:29;;;;;;;7.35;2.60;;;;;;;;;;4949481;28;20051;-80
2022/04/22 12:20:56;;;;;;;13.77;3.20;;;;;;;;;;4969995;28;20051;-79
2022/04/22 12:23:23;;;;;;;13.63;3.05;;;;;;;;;;4952977;28;20528;-80
2022/04/22 12:25:55;;;;;;;16.90;3.20;;;;;;;;;;4968272;28;20075;-80
2022/04/22 12:28:22;;;;;;;8.30;3.10;;;;;;;;;;4966926;28;20059;-80
2022/04/22 12:30:48;;;;;;;7.90;2.90;;;;;;;;;;4946158;28;20066;-79
2022/04/22 12:33:23;;;;;;;7.15;2.92;;;;;;;;;;4964642;28;20522;-79
2022/04/22 12:36:07;;;;;;;11.57;3.15;;;;;;;;;;4946786;28;20062;-78
2022/04/22 12:38:34;;;;;;;10.35;3.13;;;;;;;;;;4946177;28;20059;-79
2022/04/22 12:41:01;;;;;;;9.75;3.13;;;;;;;;;;4945895;28;20154;-79
2022/04/22 12:43:31;;;;;;;7.43;2.80;;;;;;;;;;4956335;28;20055;-79
2022/04/22 12:52:12;;;;;;;8.27;2.95;;;;;;;;;;4958925;28;20059;-79
2022/04/22 12:54:40;;;;;;;20.15;3.90;;;;;;;;;;4962541;28;20055;-79
2022/04/22 12:57:09;;;;;;;25.23;4.30;;;;;;;;;;4944709;28;20080;-79
2022/04/22 12:59:49;;;;;;;8.57;2.90;;;;;;;;;;4948508;28;20051;-79
2022/04/22 13:02:16;;;;;;;9.65;3.10;;;;;;;;;;4956027;28;20063;-78
2022/04/22 13:04:55;;;;;;;6.20;2.67;;;;;;;;;;4958142;28;20059;-78
2022/04/22 13:07:22;;;;;;;7.28;2.78;;;;;;;;;;4959672;28;20585;-78
2022/04/22 13:09:49;;;;;;;8.15;2.60;;;;;;;;;;4947507;28;20091;-78
2022/04/22 13:12:16;;;;;;;9.80;3.08;;;;;;;;;;4951187;28;20079;-78
2022/04/22 13:14:43;;;;;;;4.82;2.22;;;;;;;;;;4969579;28;20047;-78
2022/04/22 13:17:19;;;;;;;7.32;2.70;;;;;;;;;;4942660;28;20082;-79
2022/04/22 13:19:46;;;;;;;9.18;2.53;;;;;;;;;;4942384;28;20079;-79
2022/04/22 13:22:12;;;;;;;12.20;3.30;;;;;;;;;;4964169;28;20804;-79
2022/04/22 13:24:41;;;;;;;6.85;2.92;;;;;;;;;;4946607;28;20048;-79
2022/04/22 13:27:08;;;;;;;8.15;2.85;;;;;;;;;;4951574;28;20095;-79
2022/04/22 13:29:34;;;;;;;11.48;2.70;;;;;;;;;;4969119;28;20138;-79
2022/04/22 13:32:01;;;;;;;6.70;2.83;;;;;;;;;;4947887;28;20446;-78
2022/04/22 13:34:27;;;;;;;12.60;3.22;;;;;;;;;;4960067;28;20158;-79
2022/04/22 13:36:54;;;;;;;13.60;2.90;;;;;;;;;;4960037;28;20126;-79
2022/04/22 13:39:20;;;;;;;8.93;2.83;;;;;;;;;;4961368;28;20055;-79
2022/04/22 13:41:47;;;;;;;11.60;2.92;;;;;;;;;;4964075;28;20111;-78
2022/04/22 13:52:20;;;;;;;6.07;2.83;;;;;;;;;;4966129;28;20806;-79
2022/04/22 13:52:33;;;;;;;4.93;2.45;;;;;;;;;;4943767;28;20051;-79
2022/04/22 13:55:05;;;;;;;6.97;2.65;;;;;;;;;;4952513;28;20059;-78
2022/04/22 13:57:31;;;;;;;6.85;2.70;;;;;;;;;;4952923;28;20082;-79
2022/04/22 13:59:59;;;;;;;10.68;2.80;;;;;;;;;;4952885;28;20146;-79
2022/04/22 14:02:25;;;;;;;8.02;2.70;;;;;;;;;;4950497;28;20058;-79
2022/04/22 14:04:57;;;;;;;6.90;2.63;;;;;;;;;;4963145;28;20250;-79
2022/04/22 14:07:24;;;;;;;6.30;2.80;;;;;;;;;;4965772;28;20066;-79
2022/04/22 14:09:50;;;;;;;8.43;2.80;;;;;;;;;;4945255;28;20522;-79
2022/04/22 14:12:17;;;;;;;16.95;2.88;;;;;;;;;;4966509;28;20055;-79
2022/04/22 14:14:44;;;;;;;13.63;3.00;;;;;;;;;;4949937;28;20178;-79
2022/04/22 14:17:11;;;;;;;7.90;2.60;;;;;;;;;;4967505;28;20063;-78
2022/04/22 14:19:38;;;;;;;7.05;2.80;;;;;;;;;;4966470;28;20051;-79
2022/04/22 14:22:05;;;;;;;13.35;2.72;;;;;;;;;;4949289;28;20079;-79
2022/04/22 14:24:32;;;;;;;6.55;2.90;;;;;;;;;;4946174;28;20063;-80
2022/04/22 14:27:02;;;;;;;16.23;3.53;;;;;;;;;;4967651;28;20063;-79
2022/04/22 14:29:33;;;;;;;6.75;2.78;;;;;;;;;;4959926;28;20091;-79
2022/04/22 14:32:00;;;;;;;9.07;3.20;;;;;;;;;;4949978;28;20052;-79
2022/04/22 14:34:26;;;;;;;15.25;3.45;;;;;;;;;;4946817;28;20110;-79
2022/04/22 14:36:54;;;;;;;11.23;3.00;;;;;;;;;;4944986;28;20117;-79
2022/04/22 14:39:20;;;;;;;9.82;3.15;;;;;;;;;;4949355;28;20082;-78
2022/04/22 14:41:47;;;;;;;14.45;3.40;;;;;;;;;;4947342;28;20537;-78
2022/04/22 14:44:17;;;;;;;8.05;2.88;;;;;;;;;;4945509;28;20091;-79
2022/04/22 14:46:44;;;;;;;10.43;3.20;;;;;;;;;;4944824;28;20130;-78
2022/04/22 14:49:17;;;;;;;16.02;3.50;;;;;;;;;;4962014;28;20514;-79
2022/04/22 14:51:53;;;;;;;8.27;3.28;;;;;;;;;;4964185;28;20063;-79
2022/04/22 14:54:20;;;;;;;6.60;3.15;;;;;;;;;;4963368;28;20062;-78
2022/04/22 14:56:47;;;;;;;10.60;3.15;;;;;;;;;;4967409;28;20133;-78
2022/04/22 14:59:13;;;;;;;6.25;3.30;;;;;;;;;;4976919;28;20150;-78
2022/04/22 15:01:40;;;;;;;18.20;3.60;;;;;;;;;;4965080;28;20059;-79
2022/04/22 15:04:07;;;;;;;9.00;3.53;;;;;;;;;;4969300;28;20066;-79
2022/04/22 15:06:33;;;;;;;7.10;3.22;;;;;;;;;;4951320;28;20150;-79
2022/04/22 15:09:02;;;;;;;15.88;4.00;;;;;;;;;;4966908;28;20128;-78
2022/04/22 15:11:28;;;;;;;8.13;3.15;;;;;;;;;;4951054;28;20067;-79
2022/04/22 15:13:56;;;;;;;8.48;3.58;;;;;;;;;;4948758;28;20123;-79
2022/04/22 15:16:27;;;;;;;7.32;3.55;;;;;;;;;;4963150;28;20062;-79
2022/04/22 15:24:24;;;;;;;6.90;3.40;;;;;;;;;;4968272;28;20640;-79
2022/04/22 15:26:53;;;;;;;7.07;3.90;;;;;;;;;;4959018;28;20056;-79
2022/04/22 15:29:20;;;;;;;7.70;3.90;;;;;;;;;;4948538;28;20529;-79
2022/04/22 15:31:47;;;;;;;9.43;4.00;;;;;;;;;;4948076;28;20572;-79
2022/04/22 15:34:13;;;;;;;9.68;4.18;;;;;;;;;;4966856;28;20928;-79
2022/04/22 15:36:41;;;;;;;12.43;4.00;;;;;;;;;;4951784;28;20079;-78
2022/04/22 15:39:07;;;;;;;8.77;3.95;;;;;;;;;;4968113;28;20051;-78
2022/04/22 15:41:34;;;;;;;7.35;3.83;;;;;;;;;;4959707;28;20070;-79
2022/04/22 15:44:01;;;;;;;10.48;4.75;;;;;;;;;;4958492;28;20059;-78
2022/04/22 15:46:28;;;;;;;8.32;4.10;;;;;;;;;;4962058;28;20059;-79
2022/04/22 15:48:55;;;;;;;12.98;5.07;;;;;;;;;;4967745;28;20055;-79
2022/04/22 15:51:21;;;;;;;10.25;4.65;;;;;;;;;;4947877;28;20059;-79
2022/04/22 15:53:51;;;;;;;14.35;4.65;;;;;;;;;;4946628;28;20055;-79
2022/04/22 15:56:18;;;;;;;10.50;4.22;;;;;;;;;;4958278;28;20075;-79
2022/04/22 15:58:45;;;;;;;7.72;4.00;;;;;;;;;;4966350;28;20083;-79
2022/04/22 16:01:13;;;;;;;11.52;4.75;;;;;;;;;;4948469;28;20055;-79
2022/04/22 16:03:47;;;;;;;10.32;4.07;;;;;;;;;;4945209;28;20551;-79
2022/04/22 16:06:14;;;;;;;10.07;3.60;;;;;;;;;;4970072;28;20138;-79